หน้าหลัก
METAR-TAF:

METAR-TAF

ท่าอากาศยาน :

Funchal, มาเดรา, โปรตุเกส

ละติจูด: 32-41-52N, ลองจิจูด: 016-46-28W, ความสูง: 59 ม.

การสังเกตสภาพอากาศปัจจุบัน

รายงานได้ทำขึ้นเมื่อ 20 นาทีที่แล้ว ณ เวลา 10:30 UTC
ลม 15 นอตจากเหนือ/ตะวันออกเฉียงเหนือ
อุณหภูมิ 22°C
ความชื้น 53%
ความกดอากาศ 1021 hPa
ทัศนวิสัย 10 กม. หรือมากกว่า
มีเมฆน้อยที่ความสูง 1600 ฟุต

METAR: LPMA 251030Z 03015KT 9999 FEW016 22/12 Q1021

เวลา: 11:50 (10:50 UTC)

การพยากรณ์

รายงานได้ทำขึ้นเมื่อ 5 ชั่วโมงและ 50 นาทีที่แล้ว ณ เวลา 05:00 UTC
การพยากรณ์มีผลตั้งแต่วันที่ 25 ณ เวลา 06 UTC จนถึงวันที่ 26 ณ เวลา 06 UTC
ลม 5 นอตจากทิศทางซึ่งแปรผันได้
ทัศนวิสัย 10 กม. หรือมากกว่า
มีเมฆกระจายเป็นบางส่วนที่ความสูง 1600 ฟุต
ชั่วคราว
ตั้งแต่วันที่ 25 ณ เวลา 06 UTC จนถึงวันที่ 26 ณ เวลา 06 UTC
ลม 12 นอตจากเหนือ
มีเมฆเป็นส่วนมากเว้นเป็นระยะที่ความสูง 1500 ฟุต

TAF: LPMA 250500Z 2506/2606 VRB05KT 9999 SCT016 TEMPO 2506/2606 35012KT BKN015

สังเกตการณ์สภาพอากาศและพยากรณ์อากาศของสนามบินมากกว่า 4000 แห่ง (รายงาน METAR และ TAF).

สถานีที่ดูได้จะแสดงไว้ด้วยจุดสีเหลืองและสีแดงบนแผนที่.

เลื่อนเมาส์ไปเหนือจุดเพื่อดูชื่อสถานี.

แล้วคลิกเพื่อดูสังเกตการณ์และการพยากรณ์สภาพอากาศ.

ในการเปลี่ยนแผนที่: คลิกที่ปุ่มสีเขียวที่มีกากบาทสีดำเพื่อซูมเข้า; ที่ปุ่มสีเขียวที่มีขีดเพื่อซูมออก; หรือที่ลูกศรสีเขียวเพื่อไปยังแผนที่ที่อยู่ติดกัน.


METAR-TAF: